Time;durP1;ratioP1;P1;durP2;ratioP2;P2;SDS_P1;SDS_P2;PMS_P1;PMS_P2;Temp;Humidity;BMP_temperature;BMP_pressure;BME280_temperature;BME280_humidity;BME280_pressure;Samples;Min_cycle;Max_cycle;Signal;HPM_P1;HPM_P2
2022/11/05 00:09:28;;;;;;;13.00;5.43;;;;;;;5.67;100.00;100644.91;5995922;28;20261;-68
2022/11/05 00:10:34;;;;;;;12.90;5.32;;;;;;;5.26;100.00;100669.03;5995142;28;20066;-69
2022/11/05 00:16:43;;;;;;;16.85;5.65;;;;;;;5.49;100.00;100691.00;5992751;28;20035;-68
2022/11/05 00:19:39;;;;;;;12.83;5.80;;;;;;;5.31;100.00;100690.56;5998272;28;20030;-68
2022/11/05 00:25:59;;;;;;;18.48;5.43;;;;;;;5.33;100.00;100693.91;5997996;28;20035;-68
2022/11/05 00:28:54;;;;;;;13.80;5.57;;;;;;;5.30;100.00;100694.97;5997299;28;20364;-68
2022/11/05 00:31:50;;;;;;;21.23;6.47;;;;;;;5.33;100.00;100701.78;5997404;28;20046;-68
2022/11/05 00:34:45;;;;;;;15.43;6.10;;;;;;;5.09;100.00;100696.56;5997354;28;20065;-68
2022/11/05 00:37:41;;;;;;;19.27;6.20;;;;;;;4.93;100.00;100700.41;6002077;28;20031;-68
2022/11/05 00:40:36;;;;;;;20.02;7.05;;;;;;;5.04;100.00;100713.59;6002019;28;20030;-68
2022/11/05 00:46:45;;;;;;;19.08;6.85;;;;;;;4.89;100.00;100714.72;6002251;28;20034;-68
2022/11/05 00:49:41;;;;;;;16.17;6.30;;;;;;;4.89;100.00;100723.44;6002122;28;20039;-68
2022/11/05 00:52:55;;;;;;;13.40;5.80;;;;;;;4.88;100.00;100728.78;6001510;28;20089;-68
2022/11/05 00:55:50;;;;;;;13.73;6.30;;;;;;;4.73;100.00;100728.94;6001499;28;20540;-68
2022/11/05 00:58:47;;;;;;;17.17;6.57;;;;;;;4.71;100.00;100738.72;6001998;28;20233;-68
2022/11/05 01:01:43;;;;;;;13.18;6.03;;;;;;;4.61;100.00;100721.09;6000201;28;20474;-68
2022/11/05 01:04:38;;;;;;;16.53;5.50;;;;;;;4.80;100.00;100738.06;6001444;28;20042;-68
2022/11/05 01:07:33;;;;;;;20.83;6.50;;;;;;;4.72;100.00;100745.66;6002183;28;20061;-68
2022/11/05 01:10:30;;;;;;;13.07;5.57;;;;;;;4.66;100.00;100748.72;6001486;28;20129;-68
2022/11/05 01:13:27;;;;;;;15.77;5.78;;;;;;;4.69;100.00;100732.72;6001624;28;20114;-68
2022/11/05 01:16:23;;;;;;;14.63;6.68;;;;;;;4.74;100.00;100743.75;6001231;28;20042;-68
2022/11/05 01:19:18;;;;;;;19.90;6.50;;;;;;;4.62;100.00;100735.91;6001632;28;20031;-68
2022/11/05 01:22:13;;;;;;;15.37;5.97;;;;;;;4.69;100.00;100748.50;6000789;28;20759;-68
2022/11/05 01:25:09;;;;;;;16.65;6.85;;;;;;;4.53;100.00;100739.16;6001281;28;20034;-68
2022/11/05 01:28:05;;;;;;;17.77;6.32;;;;;;;4.55;100.00;100747.78;6001200;28;20104;-68
2022/11/05 01:31:00;;;;;;;13.65;6.43;;;;;;;4.45;100.00;100741.50;6000279;28;20382;-68
2022/11/05 01:33:56;;;;;;;14.73;5.60;;;;;;;4.55;100.00;100764.38;6001544;28;20039;-68
2022/11/05 01:36:51;;;;;;;20.60;6.03;;;;;;;4.56;100.00;100750.31;6001177;28;20066;-68
2022/11/05 01:39:46;;;;;;;14.30;5.93;;;;;;;4.59;100.00;100755.31;6001287;28;20053;-68
2022/11/05 01:42:42;;;;;;;16.00;6.27;;;;;;;4.41;100.00;100738.22;6000451;28;20046;-68
2022/11/05 01:45:38;;;;;;;20.52;6.00;;;;;;;4.66;100.00;100743.44;6000701;28;20062;-68
2022/11/05 01:48:34;;;;;;;15.10;6.20;;;;;;;4.50;100.00;100742.84;5998905;28;20035;-68
2022/11/05 01:51:30;;;;;;;20.50;6.20;;;;;;;4.41;100.00;100751.34;6000292;28;20824;-68
2022/11/05 01:54:28;;;;;;;15.88;5.85;;;;;;;4.36;100.00;100758.72;5999458;28;20039;-68
2022/11/05 01:57:23;;;;;;;17.63;6.03;;;;;;;4.34;100.00;100755.34;5999441;28;20030;-68
2022/11/05 02:00:19;;;;;;;13.02;5.80;;;;;;;4.17;100.00;100742.53;5998524;28;20038;-68
2022/11/05 02:03:15;;;;;;;16.15;5.30;;;;;;;4.19;100.00;100738.00;5999081;28;20037;-68
2022/11/05 02:06:11;;;;;;;18.67;5.80;;;;;;;4.25;100.00;100763.00;6000872;28;20039;-68
2022/11/05 02:09:25;;;;;;;15.60;5.97;;;;;;;4.20;100.00;100750.22;5998784;28;20117;-68
2022/11/05 02:12:21;;;;;;;;;;;;;;;4.33;100.00;100768.56;6000223;28;20487;-68
2022/11/05 02:15:23;;;;;;;16.93;5.77;;;;;;;4.18;100.00;100767.84;5992160;28;19921;-68
2022/11/05 02:18:46;;;;;;;16.48;5.82;;;;;;;4.13;100.00;100772.56;5998072;28;20423;-68
2022/11/05 02:22:11;;;;;;;13.23;5.22;;;;;;;4.15;100.00;100775.94;5987384;28;20576;-68
2022/11/05 02:25:24;;;;;;;14.68;5.63;;;;;;;3.98;100.00;100776.22;5986626;28;20042;-68
2022/11/05 02:28:28;;;;;;;14.95;6.35;;;;;;;4.06;100.00;100777.38;5990041;28;20030;-68
2022/11/05 02:31:35;;;;;;;17.05;5.38;;;;;;;4.08;100.00;100761.53;5998989;28;20135;-68
2022/11/05 02:34:54;;;;;;;13.15;5.50;;;;;;;3.82;100.00;100751.94;6000008;28;20065;-68
2022/11/05 02:37:53;;;;;;;15.65;5.10;;;;;;;4.19;100.00;100740.63;5998219;28;20130;-68
2022/11/05 02:41:05;;;;;;;14.68;5.03;;;;;;;4.60;100.00;100767.50;5998167;28;20742;-68
2022/11/05 02:44:15;;;;;;;15.85;6.32;;;;;;;4.48;100.00;100749.16;5998843;28;20389;-68
2022/11/05 02:47:19;;;;;;;12.00;5.43;;;;;;;4.33;100.00;100753.66;5998674;28;20035;-68
2022/11/05 02:50:30;;;;;;;19.10;5.55;;;;;;;4.18;100.00;100760.78;5998832;28;20046;-68
2022/11/05 02:53:48;;;;;;;19.73;5.60;;;;;;;4.37;100.00;100773.53;5999855;28;20046;-68
2022/11/05 02:56:46;;;;;;;14.70;4.68;;;;;;;4.00;100.00;100782.19;5997700;28;20069;-68
2022/11/05 02:59:41;;;;;;;15.65;5.38;;;;;;;3.85;100.00;100780.59;5999259;28;20033;-68
2022/11/05 03:02:37;;;;;;;14.07;5.30;;;;;;;4.15;100.00;100781.16;5996674;28;20035;-68
2022/11/05 03:05:39;;;;;;;14.43;5.63;;;;;;;3.91;100.00;100761.84;5999106;28;20035;-68
2022/11/05 03:08:45;;;;;;;11.80;5.05;;;;;;;4.05;100.00;100785.38;5999724;28;20746;-68
2022/11/05 03:12:05;;;;;;;13.93;5.05;;;;;;;3.90;100.00;100781.13;5997323;28;20106;-68
2022/11/05 03:15:15;;;;;;;12.27;4.78;;;;;;;4.35;100.00;100775.38;5979823;28;20501;-68
2022/11/05 03:18:20;;;;;;;15.40;4.75;;;;;;;4.40;100.00;100777.72;5998164;28;20419;-68
2022/11/05 03:21:19;;;;;;;13.75;5.50;;;;;;;4.02;100.00;100770.66;5998096;28;20038;-68
2022/11/05 03:24:18;;;;;;;13.75;4.35;;;;;;;3.95;100.00;100790.38;5999360;28;20116;-68
2022/11/05 03:27:19;;;;;;;14.05;4.88;;;;;;;3.79;100.00;100784.47;5997047;28;20050;-68
2022/11/05 03:30:15;;;;;;;;;;;;;;;3.84;100.00;100792.88;5997149;28;20066;-68
2022/11/05 03:33:17;;;;;;;13.52;5.00;;;;;;;3.65;100.00;100788.91;5998839;28;19944;-68
2022/11/05 03:36:19;;;;;;;13.65;4.55;;;;;;;3.60;100.00;100794.47;5997404;28;20035;-68
2022/11/05 03:39:19;;;;;;;13.25;5.07;;;;;;;4.38;100.00;100798.81;5996920;28;20430;-68
2022/11/05 03:42:16;;;;;;;13.38;4.95;;;;;;;4.55;100.00;100802.91;5996725;28;20070;-68
2022/11/05 03:45:25;;;;;;;14.82;5.90;;;;;;;4.71;100.00;100807.00;5997093;28;20481;-68
2022/11/05 03:48:24;;;;;;;13.38;4.97;;;;;;;4.45;100.00;100800.09;5996621;28;20435;-68
2022/11/05 03:51:28;;;;;;;11.88;4.40;;;;;;;4.61;100.00;100816.47;5996567;28;20471;-68
2022/11/05 03:54:23;;;;;;;14.93;4.78;;;;;;;4.64;100.00;100808.38;5997245;28;20042;-68
2022/11/05 03:57:25;;;;;;;15.27;5.35;;;;;;;4.61;100.00;100819.09;5998084;28;20117;-68
2022/11/05 04:00:20;;;;;;;;;;;;;;;4.65;100.00;100824.94;5996803;28;20069;-68
2022/11/05 04:03:15;;;;;;;11.73;4.90;;;;;;;4.28;100.00;100818.75;5997311;28;20553;-68
2022/11/05 04:19:08;;;;;;;11.15;4.13;;;;;;;4.18;100.00;100831.63;6003209;28;20698;-68
2022/11/05 04:25:18;;;;;;;12.20;4.40;;;;;;;4.54;100.00;100841.44;6002809;28;20471;-68
2022/11/05 04:28:13;;;;;;;13.02;4.75;;;;;;;4.45;100.00;100852.59;6001306;28;20747;-69
2022/11/05 04:31:08;;;;;;;16.50;4.57;;;;;;;4.14;100.00;100850.31;6001026;28;20049;-68
2022/11/05 04:34:04;;;;;;;11.37;4.27;;;;;;;4.32;100.00;100840.41;6002276;28;20106;-68
2022/11/05 04:36:59;;;;;;;11.55;4.03;;;;;;;4.61;100.00;100858.50;6002218;28;20030;-68
2022/11/05 04:39:55;;;;;;;13.13;4.87;;;;;;;4.63;100.00;100855.75;6002289;28;20125;-68
2022/11/05 04:42:52;;;;;;;11.97;4.53;;;;;;;4.60;100.00;100846.28;6001248;28;20482;-68
2022/11/05 04:45:48;;;;;;;10.73;3.92;;;;;;;4.68;100.00;100854.47;6000061;28;20579;-68
2022/11/05 04:48:43;;;;;;;12.57;4.67;;;;;;;4.74;100.00;100853.22;6002361;28;20035;-68
2022/11/05 04:51:39;;;;;;;12.23;4.17;;;;;;;4.20;100.00;100852.56;6001531;28;20109;-68
2022/11/05 04:54:34;;;;;;;9.00;3.60;;;;;;;4.48;100.00;100867.31;6002065;28;20034;-68
2022/11/05 04:57:29;;;;;;;13.73;4.43;;;;;;;4.69;100.00;100861.44;6001678;28;20050;-68
2022/11/05 05:00:25;;;;;;;8.68;3.97;;;;;;;4.55;100.00;100873.81;6001361;28;20083;-68
2022/11/05 05:03:20;;;;;;;13.40;4.30;;;;;;;4.53;100.00;100868.66;5999355;28;20054;-68
2022/11/05 05:06:16;;;;;;;9.00;3.35;;;;;;;4.54;100.00;100864.25;6001903;28;20042;-68
2022/11/05 05:09:11;;;;;;;13.85;3.75;;;;;;;4.32;100.00;100870.09;6001853;28;20469;-68
2022/11/05 05:12:07;;;;;;;9.67;3.87;;;;;;;4.50;100.00;100882.00;6001222;28;20039;-68
2022/11/05 05:15:02;;;;;;;12.70;3.47;;;;;;;4.55;100.00;100861.53;6001993;28;20035;-68
2022/11/05 05:17:58;;;;;;;9.57;3.85;;;;;;;4.74;100.00;100890.00;6001450;28;20031;-69
2022/11/05 05:24:17;;;;;;;9.60;3.58;;;;;;;4.45;100.00;100891.97;6000608;28;20102;-68
2022/11/05 05:27:12;;;;;;;9.07;3.78;;;;;;;4.47;100.00;100905.84;6001143;28;20525;-68
2022/11/05 05:30:08;;;;;;;13.83;4.13;;;;;;;4.38;100.00;100914.31;6000784;28;20038;-68
2022/11/05 05:33:05;;;;;;;11.10;4.32;;;;;;;4.41;100.00;100894.88;6001134;28;20114;-68
2022/11/05 05:36:01;;;;;;;12.27;3.63;;;;;;;4.37;100.00;100917.91;6000924;28;20042;-68
2022/11/05 05:38:57;;;;;;;15.68;4.75;;;;;;;3.90;100.00;100912.28;6000273;28;20041;-68
2022/11/05 05:41:52;;;;;;;11.93;4.53;;;;;;;4.27;100.00;100916.81;5999497;28;20035;-68
2022/11/05 05:44:47;;;;;;;11.30;4.60;;;;;;;3.88;100.00;100915.00;6000590;28;20434;-68
2022/11/05 05:47:43;;;;;;;14.83;4.80;;;;;;;3.58;100.00;100922.19;6001077;28;20394;-68
2022/11/05 05:50:38;;;;;;;14.80;4.50;;;;;;;3.27;100.00;100920.63;6000211;28;20612;-68
2022/11/05 05:53:34;;;;;;;13.37;4.47;;;;;;;3.74;100.00;100916.81;6000515;28;20049;-68
2022/11/05 05:56:29;;;;;;;22.50;6.07;;;;;;;4.02;100.00;100927.25;6001006;28;20122;-68
2022/11/05 05:59:25;;;;;;;14.60;5.57;;;;;;;4.07;100.00;100919.91;6000456;28;20485;-68
2022/11/05 06:02:21;;;;;;;12.03;4.40;;;;;;;4.08;100.00;100932.06;5998316;28;20270;-68
2022/11/05 06:05:16;;;;;;;13.65;5.60;;;;;;;4.19;100.00;100929.59;6000419;28;20385;-68
2022/11/05 06:08:12;;;;;;;11.90;5.23;;;;;;;4.13;100.00;100930.00;5999629;28;20084;-68
2022/11/05 06:11:07;;;;;;;17.73;5.70;;;;;;;3.99;100.00;100919.56;6000280;28;20031;-68
2022/11/05 06:14:03;;;;;;;16.40;5.70;;;;;;;3.81;100.00;100931.22;6000151;28;20432;-68
2022/11/05 06:16:58;;;;;;;11.70;5.10;;;;;;;3.81;100.00;100933.84;6000204;28;20035;-68
2022/11/05 06:19:53;;;;;;;22.47;6.40;;;;;;;3.82;100.00;100935.53;6000428;28;20035;-68
2022/11/05 06:22:56;;;;;;;20.47;6.17;;;;;;;3.86;100.00;100948.34;5999631;28;20293;-68
2022/11/05 06:25:51;;;;;;;20.98;7.20;;;;;;;3.79;100.00;100940.97;6000234;28;20077;-68
2022/11/05 06:28:46;;;;;;;22.13;6.70;;;;;;;3.75;100.00;100973.59;5999851;28;20035;-68
2022/11/05 06:31:42;;;;;;;22.08;7.07;;;;;;;3.73;100.00;100968.41;5999192;28;20562;-68
2022/11/05 06:34:37;;;;;;;13.73;6.17;;;;;;;3.67;100.00;100960.13;5999319;28;20509;-68
2022/11/05 06:37:33;;;;;;;20.70;6.80;;;;;;;3.82;100.00;100961.75;5999558;28;20042;-68
2022/11/05 06:40:28;;;;;;;19.23;6.00;;;;;;;3.94;100.00;100971.50;5999055;28;20037;-68
2022/11/05 06:43:23;;;;;;;17.17;6.97;;;;;;;3.94;100.00;100974.94;6000113;28;20027;-68
2022/11/05 06:46:19;;;;;;;22.80;7.05;;;;;;;3.90;100.00;100964.72;5999526;28;20081;-68
2022/11/05 06:49:14;;;;;;;20.30;7.73;;;;;;;3.99;100.00;100958.91;5999540;28;20090;-68
2022/11/05 06:52:10;;;;;;;17.67;6.83;;;;;;;3.96;100.00;100972.22;5998804;28;20105;-68
2022/11/05 06:55:06;;;;;;;21.50;7.13;;;;;;;4.08;100.00;100974.03;5999252;28;20279;-68
2022/11/05 06:58:01;;;;;;;18.77;6.15;;;;;;;3.95;100.00;100968.75;5999060;28;20031;-68
2022/11/05 07:01:04;;;;;;;19.03;6.30;;;;;;;4.02;100.00;100974.47;5998519;28;20031;-68
2022/11/05 07:04:00;;;;;;;16.23;6.40;;;;;;;4.07;100.00;100972.38;5998185;28;20476;-68
2022/11/05 07:06:55;;;;;;;16.30;5.88;;;;;;;4.25;100.00;100984.31;5998954;28;20038;-68
2022/11/05 07:09:51;;;;;;;16.73;6.37;;;;;;;4.13;100.00;100972.00;5999365;28;20129;-67
2022/11/05 07:12:46;;;;;;;18.25;6.88;;;;;;;4.20;100.00;100981.16;5998289;28;20820;-67
2022/11/05 07:15:42;;;;;;;17.50;6.22;;;;;;;4.30;100.00;100990.09;5999217;28;20039;-67
2022/11/05 07:18:37;;;;;;;13.40;5.70;;;;;;;4.42;100.00;100991.94;5998606;28;20073;-67
2022/11/05 07:21:34;;;;;;;16.92;5.90;;;;;;;4.69;100.00;101013.75;5997749;28;20090;-67
2022/11/05 07:24:29;;;;;;;18.60;6.32;;;;;;;4.77;100.00;101011.47;5998899;28;20049;-69
2022/11/05 07:27:24;;;;;;;17.67;6.50;;;;;;;4.81;100.00;101001.56;5994949;28;20467;-67
2022/11/05 07:30:20;;;;;;;16.35;6.20;;;;;;;4.92;100.00;100999.06;5996254;28;20070;-67
2022/11/05 07:33:15;;;;;;;19.13;6.33;;;;;;;5.08;100.00;100998.91;5998832;28;20114;-66
2022/11/05 07:36:10;;;;;;;17.20;6.40;;;;;;;5.16;100.00;100999.22;5998893;28;20039;-66
2022/11/05 07:39:06;;;;;;;19.00;6.50;;;;;;;5.33;100.00;101012.88;5998456;28;20294;-66
2022/11/05 07:42:01;;;;;;;17.38;6.63;;;;;;;5.36;100.00;100999.53;5998088;28;20041;-66
2022/11/05 07:44:56;;;;;;;24.20;7.87;;;;;;;5.62;100.00;101016.16;5997763;28;20042;-66
2022/11/05 07:47:54;;;;;;;18.23;7.60;;;;;;;5.73;100.00;101018.88;5998575;28;20058;-66
2022/11/05 07:50:50;;;;;;;17.65;7.60;;;;;;;5.96;100.00;101038.31;5996781;28;20816;-66
2022/11/05 07:53:47;;;;;;;23.45;7.80;;;;;;;6.04;100.00;101035.97;5998365;28;20423;-67
2022/11/05 07:56:45;;;;;;;20.60;7.53;;;;;;;6.12;100.00;101046.78;5998914;28;20040;-66
2022/11/05 07:59:41;;;;;;;24.65;7.50;;;;;;;6.18;100.00;101030.56;5997951;28;20082;-66
2022/11/05 08:02:36;;;;;;;19.03;7.83;;;;;;;6.40;100.00;101043.03;5997873;28;20035;-66
2022/11/05 08:05:33;;;;;;;23.93;8.17;;;;;;;6.48;100.00;101045.94;5998647;28;20046;-66
2022/11/05 08:08:28;;;;;;;22.25;6.95;;;;;;;6.60;100.00;101037.97;5998061;28;20047;-66
2022/11/05 08:11:24;;;;;;;21.40;8.40;;;;;;;6.75;100.00;101041.28;5997709;28;20042;-66
2022/11/05 08:14:19;;;;;;;19.37;7.30;;;;;;;7.03;100.00;101043.56;5998412;28;20317;-66
2022/11/05 08:17:15;;;;;;;20.42;7.40;;;;;;;7.15;100.00;101061.06;5998582;28;20070;-66
2022/11/05 08:20:11;;;;;;;18.65;7.10;;;;;;;7.25;100.00;101049.84;5998091;28;20471;-69
2022/11/05 08:23:06;;;;;;;19.50;7.60;;;;;;;7.41;100.00;101051.19;5998606;28;20509;-68
2022/11/05 08:26:02;;;;;;;23.83;8.33;;;;;;;7.37;100.00;101043.59;5998482;28;20114;-68
2022/11/05 08:28:59;;;;;;;18.77;7.50;;;;;;;7.49;100.00;101063.78;5997781;28;20354;-68
2022/11/05 08:31:54;;;;;;;21.08;7.45;;;;;;;7.68;100.00;101056.97;5997407;28;20058;-68
2022/11/05 08:34:49;;;;;;;19.20;8.00;;;;;;;7.76;100.00;101056.38;5997804;28;20027;-68
2022/11/05 08:37:45;;;;;;;17.63;6.03;;;;;;;7.95;100.00;101064.53;5997665;28;20031;-68
2022/11/05 08:40:41;;;;;;;12.80;6.23;;;;;;;7.99;100.00;101052.75;5996790;28;20562;-68
2022/11/05 08:43:37;;;;;;;21.13;7.43;;;;;;;8.21;100.00;101062.47;5998375;28;20146;-68
2022/11/05 08:46:34;;;;;;;17.53;6.40;;;;;;;8.19;100.00;101067.88;5997811;28;20093;-68
2022/11/05 08:49:29;;;;;;;22.02;7.20;;;;;;;8.27;99.26;101049.66;5997644;28;20282;-69
2022/11/05 08:52:24;;;;;;;20.43;6.47;;;;;;;8.44;98.40;101063.31;5996908;28;20054;-66
2022/11/05 08:55:20;;;;;;;16.70;6.80;;;;;;;8.65;97.97;101080.06;5997308;28;20383;-67
2022/11/05 08:58:16;;;;;;;14.23;6.35;;;;;;;8.71;96.91;101076.91;5997495;28;20066;-66
2022/11/05 09:01:11;;;;;;;24.55;6.70;;;;;;;8.85;96.46;101082.78;6001744;28;20086;-67
2022/11/05 09:04:07;;;;;;;14.20;6.40;;;;;;;8.71;95.84;101087.50;6001974;28;20066;-67
2022/11/05 09:07:02;;;;;;;13.07;5.95;;;;;;;8.42;96.42;101081.09;6001877;28;20278;-67
2022/11/05 09:09:58;;;;;;;14.93;7.13;;;;;;;8.26;97.75;101095.47;6001608;28;20486;-67
2022/11/05 09:12:54;;;;;;;17.67;6.53;;;;;;;8.34;98.67;101090.44;6001271;28;20138;-67
2022/11/05 09:15:50;;;;;;;15.77;6.15;;;;;;;8.50;98.45;101089.25;6000839;28;20026;-67
2022/11/05 09:18:46;;;;;;;19.00;6.40;;;;;;;8.84;97.65;101104.88;6001313;28;20082;-67
2022/11/05 09:21:41;;;;;;;14.93;5.82;;;;;;;9.12;96.35;101103.47;5999830;28;20046;-67
2022/11/05 09:24:36;;;;;;;12.50;5.60;;;;;;;9.34;95.14;101098.06;6001164;28;20042;-67
2022/11/05 09:27:32;;;;;;;13.90;5.33;;;;;;;9.58;93.02;101105.72;6000512;28;20031;-67
2022/11/05 09:30:27;;;;;;;15.52;5.38;;;;;;;9.46;91.68;101091.72;5999950;28;20035;-67
2022/11/05 09:33:24;;;;;;;15.10;5.10;;;;;;;9.75;91.96;101101.66;5999570;28;20157;-68
2022/11/05 09:36:21;;;;;;;11.68;5.28;;;;;;;10.00;90.25;101107.34;5997546;28;20037;-67
2022/11/05 09:39:16;;;;;;;10.23;4.13;;;;;;;9.95;88.93;101106.06;6000560;28;20043;-67
2022/11/05 09:42:15;;;;;;;12.20;5.07;;;;;;;9.89;88.54;101107.44;5999808;28;20447;-67
2022/11/05 09:45:16;;;;;;;12.85;4.60;;;;;;;9.99;88.96;101120.72;5999161;28;20114;-67
2022/11/05 09:48:14;;;;;;;15.23;4.88;;;;;;;10.12;88.12;101124.00;5999766;28;20035;-67
2022/11/05 09:51:13;;;;;;;15.40;4.82;;;;;;;10.01;88.06;101118.78;5999027;28;20732;-67
2022/11/05 09:54:10;;;;;;;9.20;3.72;;;;;;;10.13;86.90;101113.31;5999780;28;20030;-67
2022/11/05 09:57:13;;;;;;;12.60;5.15;;;;;;;10.12;86.87;101127.53;5999683;28;20043;-67
2022/11/05 10:00:15;;;;;;;10.73;4.05;;;;;;;9.86;87.30;101120.13;6000606;28;20063;-66
2022/11/05 10:03:13;;;;;;;8.00;4.68;;;;;;;9.73;87.33;101119.50;5999812;28;20037;-67
2022/11/05 10:06:11;;;;;;;10.55;4.60;;;;;;;9.83;87.53;101120.38;6012311;28;20031;-67
2022/11/05 10:09:15;;;;;;;10.80;3.88;;;;;;;9.92;87.00;101143.44;5998677;28;20744;-67
2022/11/05 10:12:16;;;;;;;10.77;4.35;;;;;;;9.90;87.45;101140.06;5999991;28;20106;-67
2022/11/05 10:15:15;;;;;;;12.65;4.65;;;;;;;10.05;87.58;101142.25;5999374;28;20039;-67
2022/11/05 10:18:14;;;;;;;11.73;4.50;;;;;;;9.90;87.55;101148.00;5999631;28;20437;-67
2022/11/05 10:21:17;;;;;;;13.32;4.90;;;;;;;9.96;87.48;101150.13;5999123;28;20380;-68
2022/11/05 10:24:18;;;;;;;12.68;4.75;;;;;;;9.76;87.29;101148.34;6000295;28;20051;-67
2022/11/05 10:27:28;;;;;;;14.43;4.78;;;;;;;9.59;88.50;101150.59;6000799;28;20364;-67
2022/11/05 10:30:23;;;;;;;14.02;5.07;;;;;;;9.44;89.37;101157.19;5998886;28;20038;-69
2022/11/05 10:33:28;;;;;;;15.23;4.70;;;;;;;9.38;90.13;101140.97;6000167;28;20023;-68
2022/11/05 10:36:26;;;;;;;15.80;5.32;;;;;;;9.54;89.67;101151.94;5998897;28;20505;-67
2022/11/05 10:39:23;;;;;;;14.77;4.30;;;;;;;9.53;89.80;101153.78;5995884;28;20123;-67
2022/11/05 10:42:53;;;;;;;12.27;4.65;;;;;;;9.49;90.21;101148.84;5999593;28;20031;-67
2022/11/05 10:46:15;;;;;;;13.88;4.20;;;;;;;9.62;89.32;101159.28;5999941;28;20148;-68
2022/11/05 10:49:22;;;;;;;9.15;3.53;;;;;;;9.61;89.20;101150.50;6000011;28;20030;-68
2022/11/05 10:52:22;;;;;;;9.20;3.97;;;;;;;9.51;89.25;101158.34;5999250;28;20045;-67
2022/11/05 10:55:21;;;;;;;11.10;4.07;;;;;;;9.46;89.57;101165.84;5999808;28;20039;-68
2022/11/05 10:58:16;;;;;;;15.73;5.07;;;;;;;9.52;90.17;101169.78;5999417;28;20113;-68
2022/11/05 11:01:11;;;;;;;10.30;4.13;;;;;;;9.55;89.49;101167.72;5997060;28;20031;-67
2022/11/05 11:04:22;;;;;;;10.10;3.83;;;;;;;9.73;88.70;101164.50;5999253;28;20061;-68
2022/11/05 11:07:22;;;;;;;12.93;3.90;;;;;;;9.89;88.39;101156.94;5999028;28;20042;-68
2022/11/05 11:10:20;;;;;;;12.35;4.43;;;;;;;9.88;87.94;101176.44;5997379;28;20759;-68
2022/11/05 11:13:29;;;;;;;12.75;3.83;;;;;;;9.96;86.91;101164.22;5997633;28;20031;-67
2022/11/05 11:16:26;;;;;;;9.95;3.75;;;;;;;10.08;86.48;101165.00;5998157;28;20039;-68
2022/11/05 11:19:33;;;;;;;9.23;3.45;;;;;;;10.04;85.98;101168.88;5998870;28;20062;-67
2022/11/05 11:22:28;;;;;;;8.88;3.75;;;;;;;10.14;85.74;101169.78;5998367;28;20026;-68
2022/11/05 11:25:27;;;;;;;9.20;4.10;;;;;;;10.44;85.38;101169.78;5999319;28;20452;-68
2022/11/05 11:28:30;;;;;;;12.13;3.50;;;;;;;10.43;84.49;101165.47;5999896;28;20117;-69
2022/11/05 11:31:28;;;;;;;8.95;3.65;;;;;;;10.75;83.34;101163.47;5998586;28;20110;-68
2022/11/05 11:34:34;;;;;;;10.10;3.50;;;;;;;10.98;81.96;101149.97;5997852;28;20038;-68
2022/11/05 11:37:33;;;;;;;12.40;3.92;;;;;;;10.96;80.31;101173.13;5999810;28;20366;-67
2022/11/05 11:40:34;;;;;;;10.90;4.05;;;;;;;10.67;81.61;101150.03;5997866;28;20077;-67
2022/11/05 11:43:33;;;;;;;9.55;3.50;;;;;;;10.87;82.37;101166.00;5998345;28;20033;-67
2022/11/05 11:46:31;;;;;;;10.40;4.25;;;;;;;10.87;81.05;101152.75;5997439;28;20130;-68
2022/11/05 11:49:44;;;;;;;10.35;3.20;;;;;;;11.00;81.64;101155.97;5998858;28;20110;-67
2022/11/05 11:52:39;;;;;;;9.48;4.10;;;;;;;10.91;80.33;101167.41;5998221;28;20058;-68
2022/11/05 11:55:34;;;;;;;8.67;4.23;;;;;;;10.87;80.38;101144.78;5997868;28;20033;-67
2022/11/05 11:58:42;;;;;;;11.87;4.63;;;;;;;11.03;80.34;101155.69;5998083;28;20266;-67
2022/11/05 12:02:23;;;;;;;10.25;4.25;;;;;;;10.93;80.24;101149.50;5990067;28;20827;-68
2022/11/05 12:05:34;;;;;;;9.23;3.90;;;;;;;10.56;80.68;101134.25;5997456;28;20577;-68
2022/11/05 12:08:48;;;;;;;8.88;3.38;;;;;;;10.54;80.50;101160.06;5989837;28;20066;-68
2022/11/05 12:11:57;;;;;;;8.70;3.17;;;;;;;10.44;81.90;101150.38;5993972;28;20054;-68
2022/11/05 12:15:10;;;;;;;10.75;3.55;;;;;;;10.38;80.75;101141.13;5998082;28;20043;-68
2022/11/05 12:18:31;;;;;;;11.23;3.33;;;;;;;10.46;79.85;101165.16;5997469;28;20573;-67
2022/11/05 12:21:38;;;;;;;7.68;3.17;;;;;;;10.37;79.53;101151.91;5997315;28;20053;-68
2022/11/05 12:24:38;;;;;;;10.48;3.53;;;;;;;10.37;79.21;101151.91;5997276;28;20105;-68
2022/11/05 12:28:11;;;;;;;9.60;3.40;;;;;;;10.41;79.71;101137.41;5994225;28;20035;-69
2022/11/05 12:31:18;;;;;;;8.48;3.47;;;;;;;10.48;81.09;101138.53;5998000;28;20371;-69
2022/11/05 12:34:30;;;;;;;11.07;3.70;;;;;;;10.54;79.89;101140.66;6002851;28;20031;-68
2022/11/05 12:37:45;;;;;;;10.45;3.53;;;;;;;10.58;78.91;101140.25;6002924;28;20065;-69
2022/11/05 12:40:55;;;;;;;6.45;2.97;;;;;;;10.80;78.08;101140.97;6002454;28;20370;-68
2022/11/05 12:44:08;;;;;;;8.40;3.72;;;;;;;10.95;77.54;101143.09;6002506;28;20035;-68
2022/11/05 12:47:41;;;;;;;8.23;3.10;;;;;;;11.15;75.02;101130.69;6001407;28;20027;-69
2022/11/05 12:51:02;;;;;;;7.65;2.92;;;;;;;11.05;74.41;101120.06;6001732;28;20046;-70
2022/11/05 12:54:19;;;;;;;7.95;2.58;;;;;;;11.37;75.04;101133.06;5986052;28;20042;-69
2022/11/05 12:57:15;;;;;;;6.82;2.53;;;;;;;11.44;74.16;101123.53;6002734;28;20038;-68
2022/11/05 13:00:16;;;;;;;8.50;3.22;;;;;;;11.41;73.86;101137.13;6001678;28;20027;-69
2022/11/05 13:03:16;;;;;;;8.90;3.15;;;;;;;11.32;73.84;101136.16;6001920;28;20035;-69
2022/11/05 13:06:15;;;;;;;7.93;2.67;;;;;;;11.12;73.49;101144.22;6001355;28;20035;-68
2022/11/05 13:09:25;;;;;;;6.57;3.03;;;;;;;10.98;75.37;101142.00;6002488;28;20034;-68
2022/11/05 13:12:21;;;;;;;7.32;3.17;;;;;;;11.03;75.05;101137.97;6000649;28;20088;-69
2022/11/05 13:15:27;;;;;;;10.20;3.13;;;;;;;10.80;75.48;101133.03;6000823;28;20417;-68
2022/11/05 13:18:30;;;;;;;7.82;2.75;;;;;;;10.65;75.47;101136.06;6000855;28;20039;-69
2022/11/05 13:21:28;;;;;;;7.50;3.22;;;;;;;10.49;75.72;101133.09;6000122;28;20051;-69
2022/11/05 13:24:27;;;;;;;7.57;3.33;;;;;;;10.39;75.98;101129.56;6000983;28;20121;-69
2022/11/05 13:27:25;;;;;;;7.97;3.17;;;;;;;10.41;75.75;101143.53;6000900;28;20045;-69
2022/11/05 13:30:24;;;;;;;6.22;3.15;;;;;;;10.34;76.38;101134.44;6001129;28;20039;-69
2022/11/05 13:33:22;;;;;;;10.88;3.58;;;;;;;10.29;76.26;101134.00;6000611;28;20035;-66
2022/11/05 13:39:49;;;;;;;6.13;3.15;;;;;;;10.36;76.20;101134.28;6000572;28;20038;-69
2022/11/05 13:42:57;;;;;;;8.05;3.40;;;;;;;10.28;75.84;101116.41;5998363;28;20027;-68
2022/11/05 13:46:03;;;;;;;9.60;3.28;;;;;;;10.30;76.15;101125.06;6001410;28;20062;-70
2022/11/05 13:49:20;;;;;;;7.05;3.20;;;;;;;10.30;75.91;101119.75;5996871;28;20035;-69
2022/11/05 13:52:34;;;;;;;6.32;3.28;;;;;;;10.30;76.45;101135.66;5999192;28;20034;-69
2022/11/05 13:55:55;;;;;;;8.10;3.38;;;;;;;10.31;77.15;101137.34;6001400;28;20055;-69
2022/11/05 13:58:55;;;;;;;9.57;3.38;;;;;;;10.27;77.46;101140.41;6016385;28;20038;-69
2022/11/05 14:01:57;;;;;;;6.35;2.90;;;;;;;10.26;76.24;101142.22;5999281;28;20031;-68
2022/11/05 14:04:58;;;;;;;9.02;2.95;;;;;;;10.29;75.71;101135.81;5999696;28;20038;-68
2022/11/05 14:07:54;;;;;;;4.35;2.85;;;;;;;10.15;74.63;101123.75;5999075;28;20027;-67
2022/11/05 14:11:45;;;;;;;4.38;3.10;;;;;;;10.16;74.75;101126.28;5999091;28;20466;-67
2022/11/05 14:14:44;;;;;;;8.27;3.15;;;;;;;10.16;75.40;101123.63;5974189;28;20058;-69
2022/11/05 14:18:17;;;;;;;5.53;2.80;;;;;;;10.20;74.47;101142.75;5974462;28;20031;-67
2022/11/05 14:21:29;;;;;;;6.70;3.22;;;;;;;10.16;74.79;101144.81;6000463;28;20034;-68
2022/11/05 14:24:40;;;;;;;7.55;2.40;;;;;;;10.09;73.77;101138.34;6000129;28;20574;-68
2022/11/05 14:27:35;;;;;;;5.93;2.53;;;;;;;10.12;74.37;101147.84;6000340;28;20046;-68
2022/11/05 14:30:41;;;;;;;5.40;2.50;;;;;;;10.14;73.55;101151.22;5999434;28;20066;-68
2022/11/05 14:33:38;;;;;;;10.05;2.30;;;;;;;10.06;73.89;101153.66;6000122;28;20027;-69